In Rescue
 
Open Full Screen Window  High Contrast Mode
Wind Gusting 00 knots
05
February 02, 2023 6:33 PM EST
Weather Information
Wind Direction
  230 °
Wind Speed
  05 kt (6 mph)
Wind Gust
  00 kt (0 mph)
Altimeter
30.12 in
Visibility
10 SM
Temperature
01° C
34° F
Dewpoint
-08° C
18° F
Humidity
51%
1hr Rain Fall
00.00 in.
24hr Rain Fall
00.00 in.
Sky Condition
Clear
VFR

METAR KI69 022333Z AUTO 23005KT 10SM CLR 01/M08 A3012 RMK AO2 T00081076

FAA Disclaimer: The data displayed is for advisory purposes only and is not to be used for flight planning or operations.